createdAt,value
2022-11-25T00:01:35.615Z,2.58
2022-11-25T00:04:05.144Z,2.75
2022-11-25T00:06:34.734Z,2.69
2022-11-25T00:09:05.927Z,2.91
2022-11-25T00:11:36.285Z,2.76
2022-11-25T00:14:05.125Z,2.73
2022-11-25T00:16:33.309Z,2.72
2022-11-25T00:19:01.408Z,2.70
2022-11-25T00:21:34.236Z,2.86
2022-11-25T00:24:03.975Z,2.67
2022-11-25T00:26:33.750Z,2.72
2022-11-25T00:29:03.738Z,2.62
2022-11-25T00:31:33.790Z,2.67
2022-11-25T00:34:02.419Z,2.67
2022-11-25T00:36:35.241Z,2.72
2022-11-25T00:39:07.819Z,2.68
2022-11-25T00:41:53.140Z,2.72
2022-11-25T00:44:38.967Z,2.77
2022-11-25T00:47:11.211Z,2.82
2022-11-25T00:49:39.676Z,2.76
2022-11-25T00:52:10.346Z,2.75
2022-11-25T00:54:38.540Z,2.75
2022-11-25T00:57:08.454Z,2.81
2022-11-25T00:59:39.347Z,2.81
2022-11-25T01:02:07.954Z,2.86
2022-11-25T01:04:36.383Z,2.89
2022-11-25T01:07:04.591Z,2.91
2022-11-25T01:09:34.061Z,2.86
2022-11-25T01:12:01.947Z,2.84
2022-11-25T01:14:32.333Z,3.05
2022-11-25T01:17:00.383Z,2.92
2022-11-25T01:19:29.007Z,2.86
2022-11-25T01:21:57.003Z,2.88
2022-11-25T01:24:28.312Z,2.84
2022-11-25T01:27:00.311Z,2.86
2022-11-25T01:29:28.339Z,2.96
2022-11-25T01:31:57.186Z,2.94
2022-11-25T01:34:27.292Z,2.93
2022-11-25T01:36:58.283Z,2.90
2022-11-25T01:39:31.974Z,2.92
2022-11-25T01:42:02.153Z,3.07
2022-11-25T01:44:33.121Z,3.13
2022-11-25T01:47:16.873Z,3.07
2022-11-25T01:49:50.186Z,2.93
2022-11-25T01:52:23.904Z,2.99
2022-11-25T01:54:55.889Z,3.04
2022-11-25T01:57:29.323Z,3.04
2022-11-25T02:00:00.933Z,3.04
2022-11-25T02:02:30.380Z,3.03
2022-11-25T02:05:01.783Z,3.00
2022-11-25T02:07:35.886Z,2.97
2022-11-25T02:10:10.924Z,3.00
2022-11-25T02:12:46.646Z,3.27
2022-11-25T02:15:16.313Z,2.94
2022-11-25T02:17:45.160Z,2.99
2022-11-25T02:20:16.829Z,3.20
2022-11-25T02:22:54.425Z,3.36
2022-11-25T02:25:33.441Z,3.10
2022-11-25T02:28:05.912Z,3.09
2022-11-25T02:30:34.266Z,3.10
2022-11-25T02:33:02.588Z,3.24
2022-11-25T02:35:34.031Z,3.13
2022-11-25T02:38:07.962Z,3.12
2022-11-25T02:40:42.935Z,3.07
2022-11-25T02:43:11.185Z,3.10
2022-11-25T02:45:59.187Z,3.10
2022-11-25T02:48:46.131Z,3.07
2022-11-25T02:51:20.083Z,3.07
2022-11-25T02:53:48.120Z,3.15
2022-11-25T02:56:20.428Z,3.12
2022-11-25T02:58:48.632Z,3.03
2022-11-25T03:01:16.715Z,3.03
2022-11-25T03:03:45.045Z,3.06
2022-11-25T03:06:13.219Z,3.01
2022-11-25T03:08:41.286Z,2.99
2022-11-25T03:11:12.445Z,2.99
2022-11-25T03:13:41.845Z,3.02
2022-11-25T03:16:11.524Z,3.10
2022-11-25T03:18:39.618Z,3.07
2022-11-25T03:21:10.156Z,3.06
2022-11-25T03:23:38.087Z,4.61
2022-11-25T03:26:07.627Z,3.76
2022-11-25T03:28:35.782Z,3.32
2022-11-25T03:31:05.070Z,3.19
2022-11-25T03:33:33.344Z,3.16
2022-11-25T03:36:01.698Z,3.43
2022-11-25T03:38:29.692Z,3.14
2022-11-25T03:40:57.798Z,3.18
2022-11-25T03:43:28.008Z,3.13
2022-11-25T03:45:55.947Z,3.12
2022-11-25T03:48:25.293Z,3.13
2022-11-25T03:50:53.468Z,3.07
2022-11-25T03:53:24.169Z,3.09
2022-11-25T03:55:52.205Z,3.11
2022-11-25T03:58:25.790Z,3.08
2022-11-25T04:00:53.860Z,3.09
2022-11-25T04:03:22.546Z,3.14
2022-11-25T04:05:51.928Z,3.09
2022-11-25T04:08:21.191Z,3.19
2022-11-25T04:10:50.528Z,3.13
2022-11-25T04:13:21.930Z,3.06
2022-11-25T04:15:51.073Z,3.19
2022-11-25T04:18:21.120Z,3.14
2022-11-25T04:20:53.859Z,3.33
2022-11-25T04:23:22.004Z,3.55
2022-11-25T04:25:59.472Z,3.38
2022-11-25T04:28:39.924Z,3.23
2022-11-25T04:31:09.450Z,3.25
2022-11-25T04:33:40.422Z,3.24
2022-11-25T04:36:11.828Z,3.14
2022-11-25T04:38:41.528Z,3.22
2022-11-25T04:41:10.132Z,3.22
2022-11-25T04:43:42.937Z,3.23
2022-11-25T04:46:17.527Z,3.42
2022-11-25T04:48:49.377Z,3.23
2022-11-25T04:51:20.118Z,3.25
2022-11-25T04:53:54.623Z,3.23
2022-11-25T04:56:25.003Z,3.14
2022-11-25T04:59:12.428Z,3.21
2022-11-25T05:01:47.319Z,3.26
2022-11-25T05:04:42.805Z,3.23
2022-11-25T05:07:14.481Z,3.29
2022-11-25T05:09:45.407Z,3.35
2022-11-25T05:12:21.563Z,3.32
2022-11-25T05:14:50.540Z,3.31
2022-11-25T05:17:23.547Z,3.41
2022-11-25T05:19:52.476Z,3.42
2022-11-25T05:22:23.429Z,3.39
2022-11-25T05:24:52.718Z,3.46
2022-11-25T05:27:22.290Z,3.46
2022-11-25T05:29:55.745Z,3.54
2022-11-25T05:32:24.944Z,3.52
2022-11-25T05:34:53.312Z,3.46
2022-11-25T05:37:24.698Z,3.38
2022-11-25T05:40:00.167Z,3.46
2022-11-25T05:42:33.839Z,3.44
2022-11-25T05:45:05.520Z,3.43
2022-11-25T05:47:35.246Z,3.38
2022-11-25T05:50:05.862Z,3.42
2022-11-25T05:52:35.469Z,3.40
2022-11-25T05:55:03.497Z,3.36
2022-11-25T05:57:32.684Z,3.35
2022-11-25T06:00:07.425Z,3.46
2022-11-25T06:02:53.811Z,3.49
2022-11-25T06:05:23.087Z,3.45
2022-11-25T06:07:53.403Z,3.47
2022-11-25T06:10:22.801Z,3.49
2022-11-25T06:12:53.621Z,3.48
2022-11-25T06:15:21.625Z,3.53
2022-11-25T06:17:50.966Z,3.52
2022-11-25T06:20:25.565Z,3.54
2022-11-25T06:22:55.297Z,3.55
2022-11-25T06:25:29.905Z,3.59
2022-11-25T06:28:12.521Z,3.70
2022-11-25T06:30:43.209Z,3.54
2022-11-25T06:33:19.723Z,3.45
2022-11-25T06:35:49.422Z,3.47
2022-11-25T06:38:21.368Z,3.37
2022-11-25T06:40:49.537Z,3.39
2022-11-25T06:43:17.639Z,3.39
2022-11-25T06:45:45.600Z,3.43
2022-11-25T06:48:13.597Z,3.53
2022-11-25T06:50:41.681Z,3.34
2022-11-25T06:53:09.918Z,3.20
2022-11-25T06:55:52.547Z,3.16
2022-11-25T06:58:35.454Z,3.15
2022-11-25T07:01:05.995Z,3.21
2022-11-25T07:03:34.534Z,3.40
2022-11-25T07:06:06.206Z,3.33
2022-11-25T07:08:39.097Z,3.25
2022-11-25T07:11:13.575Z,3.19
2022-11-25T07:13:41.523Z,3.25
2022-11-25T07:16:09.956Z,3.23
2022-11-25T07:18:39.549Z,3.24
2022-11-25T07:21:15.254Z,3.22
2022-11-25T07:23:45.118Z,3.16
2022-11-25T07:26:16.666Z,3.16
2022-11-25T07:28:44.948Z,3.08
2022-11-25T07:31:27.529Z,3.10
2022-11-25T07:34:01.147Z,3.05
2022-11-25T07:36:34.719Z,3.05
2022-11-25T07:39:08.999Z,3.06
2022-11-25T07:41:39.208Z,3.01
2022-11-25T07:44:08.826Z,3.03
2022-11-25T07:46:47.458Z,3.03
2022-11-25T07:49:17.170Z,3.07
2022-11-25T07:51:49.524Z,3.02
2022-11-25T07:54:18.038Z,3.06
2022-11-25T07:56:48.482Z,3.00
2022-11-25T07:59:18.810Z,3.02
2022-11-25T08:01:48.018Z,3.00
2022-11-25T08:04:20.847Z,3.06
2022-11-25T08:06:51.836Z,3.16
2022-11-25T08:09:22.605Z,3.14
2022-11-25T08:11:54.415Z,3.16
2022-11-25T08:14:22.931Z,3.16
2022-11-25T08:16:51.859Z,3.29
2022-11-25T08:19:20.914Z,3.25
2022-11-25T08:21:49.199Z,3.69
2022-11-25T08:24:19.731Z,3.45
2022-11-25T08:26:48.100Z,3.71
2022-11-25T08:29:20.191Z,3.65
2022-11-25T08:31:48.578Z,3.83
2022-11-25T08:34:20.917Z,3.78
2022-11-25T08:36:50.850Z,4.26
2022-11-25T08:42:08.882Z,3.93
2022-11-25T08:44:38.440Z,3.73
2022-11-25T08:47:06.752Z,3.69
2022-11-25T08:49:40.439Z,3.65
2022-11-25T08:52:10.388Z,3.64
2022-11-25T08:54:39.070Z,3.57
2022-11-25T08:57:07.450Z,3.65
2022-11-25T08:59:37.052Z,3.55
2022-11-25T09:02:08.113Z,3.55
2022-11-25T09:04:37.271Z,3.70
2022-11-25T09:07:06.489Z,3.59
2022-11-25T09:09:35.718Z,3.74
2022-11-25T09:12:08.029Z,3.72
2022-11-25T09:14:36.609Z,3.82
2022-11-25T09:17:11.764Z,3.76
2022-11-25T09:19:41.391Z,3.91
2022-11-25T09:22:09.935Z,3.88
2022-11-25T09:24:38.218Z,4.00
2022-11-25T09:27:06.571Z,3.87
2022-11-25T09:29:35.709Z,3.95
2022-11-25T09:32:05.063Z,4.05
2022-11-25T09:34:35.760Z,4.12
2022-11-25T09:37:04.586Z,4.05
2022-11-25T09:39:35.683Z,4.22
2022-11-25T09:42:44.235Z,4.12
2022-11-25T09:45:42.784Z,4.30
2022-11-25T09:48:31.821Z,4.33
2022-11-25T09:51:12.198Z,4.42
2022-11-25T09:53:45.808Z,4.29
2022-11-25T09:56:23.873Z,4.36
2022-11-25T09:58:59.021Z,4.38
2022-11-25T10:01:31.750Z,4.53
2022-11-25T10:04:05.731Z,4.59
2022-11-25T10:06:41.903Z,4.70
2022-11-25T10:09:14.814Z,4.80
2022-11-25T10:11:57.130Z,4.83
2022-11-25T10:14:41.202Z,4.94
2022-11-25T10:17:19.327Z,4.87
2022-11-25T10:19:58.194Z,4.72
2022-11-25T10:22:31.292Z,4.71
2022-11-25T10:25:02.568Z,4.74
2022-11-25T10:27:42.425Z,4.77
2022-11-25T10:30:18.325Z,4.98
2022-11-25T10:33:02.523Z,4.82
2022-11-25T10:35:35.484Z,4.99
2022-11-25T10:38:17.365Z,5.02
2022-11-25T10:40:51.375Z,4.71
2022-11-25T10:43:19.822Z,4.60
2022-11-25T10:45:54.444Z,4.83
2022-11-25T10:48:37.008Z,4.79
2022-11-25T10:51:20.421Z,4.89
2022-11-25T10:54:12.041Z,4.82
2022-11-25T10:56:50.017Z,4.85
2022-11-25T10:59:26.596Z,4.82
2022-11-25T11:02:14.060Z,4.90
2022-11-25T11:04:53.756Z,4.81
2022-11-25T11:07:21.951Z,4.84
2022-11-25T11:09:52.256Z,4.92
2022-11-25T11:12:23.659Z,4.79
2022-11-25T11:14:52.546Z,4.80
2022-11-25T11:17:36.363Z,4.70
2022-11-25T11:20:20.623Z,4.94
2022-11-25T11:22:52.811Z,4.83
2022-11-25T11:25:34.427Z,4.86
2022-11-25T11:28:03.476Z,4.95
2022-11-25T11:30:33.180Z,4.97
2022-11-25T11:33:06.886Z,5.02
2022-11-25T11:35:46.263Z,5.10
2022-11-25T11:38:32.575Z,5.34
2022-11-25T11:41:25.212Z,5.33
2022-11-25T11:44:08.161Z,5.20
2022-11-25T11:46:47.936Z,5.17
2022-11-25T11:49:46.719Z,5.19
2022-11-25T11:52:31.111Z,5.28
2022-11-25T11:55:03.493Z,5.31
2022-11-25T11:57:41.088Z,5.31
2022-11-25T12:00:12.823Z,5.17
2022-11-25T12:02:59.867Z,5.08
2022-11-25T12:05:31.000Z,5.12
2022-11-25T12:08:07.245Z,5.10
2022-11-25T12:10:41.207Z,5.15
2022-11-25T12:13:18.439Z,5.01
2022-11-25T12:15:52.866Z,5.13
2022-11-25T12:18:27.275Z,5.05
2022-11-25T12:21:03.452Z,5.04
2022-11-25T12:23:42.575Z,5.03
2022-11-25T12:26:16.302Z,4.94
2022-11-25T12:28:52.586Z,4.94
2022-11-25T12:31:26.228Z,4.91
2022-11-25T12:34:03.014Z,4.90
2022-11-25T12:36:36.754Z,4.89
2022-11-25T12:39:25.415Z,4.93
2022-11-25T12:41:56.852Z,4.87
2022-11-25T12:44:30.100Z,4.89
2022-11-25T12:46:59.225Z,4.92
2022-11-25T12:49:29.976Z,5.12
2022-11-25T12:52:32.276Z,5.06
2022-11-25T12:55:10.666Z,5.03
2022-11-25T12:57:54.638Z,5.01
2022-11-25T13:00:41.400Z,5.03
2022-11-25T13:03:35.943Z,5.13
2022-11-25T13:06:30.953Z,5.21
2022-11-25T13:09:09.625Z,5.05
2022-11-25T13:12:03.618Z,5.15
2022-11-25T13:14:55.420Z,5.08
2022-11-25T13:17:26.150Z,5.25
2022-11-25T13:20:40.416Z,5.29
2022-11-25T13:23:22.619Z,5.09
2022-11-25T13:25:53.095Z,5.25
2022-11-25T13:28:32.279Z,5.09
2022-11-25T13:31:19.786Z,5.17
2022-11-25T13:34:09.740Z,5.18
2022-11-25T13:36:49.783Z,5.11
2022-11-25T13:39:22.408Z,5.10
2022-11-25T13:41:59.761Z,5.08
2022-11-25T13:44:32.174Z,5.16
2022-11-25T13:47:21.375Z,5.16
2022-11-25T13:49:55.860Z,5.13
2022-11-25T13:52:35.848Z,5.15
2022-11-25T13:55:12.335Z,5.29
2022-11-25T13:57:44.997Z,5.31
2022-11-25T14:00:48.796Z,5.27
2022-11-25T14:03:44.994Z,5.25
2022-11-25T14:06:39.256Z,5.36
2022-11-25T14:09:17.885Z,5.38
2022-11-25T14:12:03.739Z,5.40
2022-11-25T14:14:59.755Z,5.40
2022-11-25T14:17:49.320Z,5.30
2022-11-25T14:20:31.254Z,5.33
2022-11-25T14:23:27.679Z,5.30
2022-11-25T14:25:58.025Z,5.15
2022-11-25T14:28:34.497Z,5.15
2022-11-25T14:31:07.954Z,5.19
2022-11-25T14:33:43.806Z,5.21
2022-11-25T14:36:15.575Z,5.12
2022-11-25T14:38:50.930Z,5.14
2022-11-25T14:41:26.665Z,5.16
2022-11-25T14:43:59.435Z,5.18
2022-11-25T14:46:27.523Z,5.40
2022-11-25T14:48:59.544Z,5.15
2022-11-25T14:51:34.943Z,5.04
2022-11-25T14:54:08.367Z,5.17
2022-11-25T14:56:37.981Z,5.25
2022-11-25T14:59:09.515Z,5.06
2022-11-25T15:01:39.911Z,4.96
2022-11-25T15:04:18.436Z,5.03
2022-11-25T15:06:51.246Z,4.98
2022-11-25T15:09:25.658Z,4.96
2022-11-25T15:11:57.620Z,4.94
2022-11-25T15:14:31.470Z,4.99
2022-11-25T15:17:00.257Z,5.18
2022-11-25T15:19:37.677Z,5.17
2022-11-25T15:22:23.884Z,5.05
2022-11-25T15:24:56.325Z,5.05
2022-11-25T15:27:26.396Z,5.15
2022-11-25T15:29:57.551Z,5.13
2022-11-25T15:32:31.476Z,5.14
2022-11-25T15:35:03.500Z,5.18
2022-11-25T15:37:31.769Z,5.14
2022-11-25T15:40:40.955Z,5.21
2022-11-25T15:43:23.089Z,5.21
2022-11-25T15:45:53.149Z,5.08
2022-11-25T15:48:28.077Z,5.13
2022-11-25T15:51:03.002Z,5.06
2022-11-25T15:53:36.913Z,5.17
2022-11-25T15:56:08.319Z,5.05
2022-11-25T15:58:37.789Z,5.06
2022-11-25T16:01:07.746Z,5.16
2022-11-25T16:03:36.143Z,5.05
2022-11-25T16:06:22.232Z,5.04
2022-11-25T16:08:55.455Z,5.02
2022-11-25T16:11:29.304Z,5.01
2022-11-25T16:14:18.532Z,4.99
2022-11-25T16:16:48.178Z,5.00
2022-11-25T16:19:20.416Z,4.97
2022-11-25T16:21:54.442Z,4.96
2022-11-25T16:24:39.727Z,4.99
2022-11-25T16:27:17.963Z,4.97
2022-11-25T16:29:52.099Z,4.94
2022-11-25T16:32:21.804Z,4.94
2022-11-25T16:34:50.056Z,4.91
2022-11-25T16:37:21.096Z,4.96
2022-11-25T16:39:54.996Z,4.97
2022-11-25T16:42:24.532Z,4.97
2022-11-25T16:44:54.199Z,4.97
2022-11-25T16:47:24.117Z,4.97
2022-11-25T16:49:52.208Z,4.99
2022-11-25T16:52:20.394Z,4.99
2022-11-25T16:54:48.432Z,4.98
2022-11-25T16:57:20.272Z,4.99
2022-11-25T16:59:55.945Z,4.98
2022-11-25T17:02:26.617Z,5.02
2022-11-25T17:04:54.906Z,5.01
2022-11-25T17:07:32.784Z,5.01
2022-11-25T17:10:01.508Z,4.98
2022-11-25T17:12:33.055Z,5.00
2022-11-25T17:15:07.659Z,5.01
2022-11-25T17:17:36.136Z,4.98
2022-11-25T17:20:05.679Z,5.01
2022-11-25T17:22:39.126Z,5.00
2022-11-25T17:25:08.530Z,5.02
2022-11-25T17:27:38.782Z,5.00
2022-11-25T17:30:17.789Z,5.10
2022-11-25T17:32:46.108Z,5.08
2022-11-25T17:35:19.714Z,5.03
2022-11-25T17:37:48.564Z,5.01
2022-11-25T17:40:17.032Z,5.08
2022-11-25T17:42:48.620Z,5.11
2022-11-25T17:45:21.168Z,5.05
2022-11-25T17:47:49.901Z,5.04
2022-11-25T17:50:23.203Z,5.23
2022-11-25T17:52:51.706Z,5.11
2022-11-25T17:55:21.928Z,5.10
2022-11-25T17:57:50.797Z,5.12
2022-11-25T18:00:22.954Z,5.19
2022-11-25T18:02:51.507Z,5.11
2022-11-25T18:05:26.664Z,5.09
2022-11-25T18:07:54.740Z,5.11
2022-11-25T18:10:27.006Z,5.14
2022-11-25T18:12:58.450Z,5.10
2022-11-25T18:15:31.862Z,5.12
2022-11-25T18:18:03.358Z,5.14
2022-11-25T18:20:33.005Z,5.14
2022-11-25T18:23:01.398Z,5.15
2022-11-25T18:25:34.492Z,5.20
2022-11-25T18:28:06.045Z,5.19
2022-11-25T18:30:37.271Z,5.18
2022-11-25T18:33:09.041Z,5.18
2022-11-25T18:35:37.237Z,5.16
2022-11-25T18:38:05.636Z,5.15
2022-11-25T18:40:35.090Z,5.16
2022-11-25T18:43:05.247Z,5.16
2022-11-25T18:45:38.241Z,5.16
2022-11-25T18:48:14.597Z,5.15
2022-11-25T18:50:45.807Z,5.20
2022-11-25T18:53:13.940Z,5.21
2022-11-25T18:55:42.537Z,5.20
2022-11-25T18:58:17.499Z,5.23
2022-11-25T19:00:49.652Z,5.17
2022-11-25T19:03:28.374Z,5.19
2022-11-25T19:05:58.615Z,5.25
2022-11-25T19:08:29.883Z,5.17
2022-11-25T19:10:58.450Z,5.16
2022-11-25T19:13:32.900Z,5.16
2022-11-25T19:16:05.508Z,5.16
2022-11-25T19:18:33.831Z,5.15
2022-11-25T19:21:01.804Z,5.12
2022-11-25T19:23:31.611Z,5.12
2022-11-25T19:26:01.958Z,5.12
2022-11-25T19:28:31.653Z,5.12
2022-11-25T19:31:04.805Z,5.08
2022-11-25T19:33:36.138Z,5.09
2022-11-25T19:36:06.362Z,5.09
2022-11-25T19:38:35.831Z,5.09
2022-11-25T19:41:03.895Z,5.09
2022-11-25T19:43:32.065Z,5.11
2022-11-25T19:46:00.931Z,5.11
2022-11-25T19:48:36.058Z,5.12
2022-11-25T19:51:04.795Z,5.13
2022-11-25T19:53:34.322Z,5.10
2022-11-25T19:56:04.677Z,5.08
2022-11-25T19:58:33.136Z,5.08
2022-11-25T20:01:05.691Z,5.08
2022-11-25T20:03:36.820Z,5.06
2022-11-25T20:06:17.005Z,5.07
2022-11-25T20:08:45.665Z,5.07
2022-11-25T20:11:26.616Z,5.04
2022-11-25T20:13:55.640Z,5.07
2022-11-25T20:16:29.964Z,5.08
2022-11-25T20:19:00.379Z,5.08
2022-11-25T20:21:34.643Z,5.04
2022-11-25T20:24:04.774Z,5.04
2022-11-25T20:26:36.598Z,5.05
2022-11-25T20:29:19.968Z,5.02
2022-11-25T20:31:48.858Z,5.07
2022-11-25T20:34:18.425Z,5.07
2022-11-25T20:36:46.537Z,5.07
2022-11-25T20:39:21.486Z,5.16
2022-11-25T20:41:53.661Z,5.10
2022-11-25T20:44:22.388Z,5.11
2022-11-25T20:46:50.488Z,5.11
2022-11-25T20:49:23.733Z,5.11
2022-11-25T20:51:51.958Z,5.12
2022-11-25T20:54:20.043Z,5.17
2022-11-25T20:56:48.243Z,5.11
2022-11-25T20:59:22.031Z,5.13
2022-11-25T21:01:54.468Z,5.10
2022-11-25T21:04:24.110Z,5.10
2022-11-25T21:06:52.523Z,5.05
2022-11-25T21:09:23.363Z,5.12
2022-11-25T21:11:51.499Z,5.10
2022-11-25T21:14:21.140Z,5.08
2022-11-25T21:16:50.003Z,5.10
2022-11-25T21:19:18.414Z,5.07
2022-11-25T21:21:49.580Z,5.05
2022-11-25T21:24:28.901Z,5.16
2022-11-25T21:27:00.098Z,5.15
2022-11-25T21:29:29.244Z,5.19
2022-11-25T21:31:57.785Z,5.15
2022-11-25T21:34:26.115Z,5.17
2022-11-25T21:36:56.222Z,5.15
2022-11-25T21:39:28.971Z,5.16
2022-11-25T21:42:02.093Z,5.16
2022-11-25T21:44:36.621Z,5.23
2022-11-25T21:47:13.575Z,5.40
2022-11-25T21:49:41.765Z,5.32
2022-11-25T21:52:11.636Z,5.33
2022-11-25T21:54:40.241Z,5.25
2022-11-25T21:57:16.044Z,5.23
2022-11-25T21:59:45.367Z,5.25
2022-11-25T22:02:18.706Z,5.39
2022-11-25T22:04:49.788Z,5.30
2022-11-25T22:07:19.300Z,5.35
2022-11-25T22:09:47.517Z,5.42
2022-11-25T22:12:29.018Z,5.37
2022-11-25T22:14:59.705Z,5.40
2022-11-25T22:17:28.928Z,5.54
2022-11-25T22:19:58.326Z,5.46
2022-11-25T22:22:28.626Z,5.62
2022-11-25T22:24:56.934Z,5.54
2022-11-25T22:27:28.255Z,5.41
2022-11-25T22:29:58.174Z,5.51
2022-11-25T22:32:26.990Z,5.45
2022-11-25T22:34:55.009Z,5.51
2022-11-25T22:37:24.854Z,5.59
2022-11-25T22:39:54.220Z,5.70
2022-11-25T22:42:27.645Z,5.92
2022-11-25T22:44:57.432Z,6.19
2022-11-25T22:47:29.863Z,6.40
2022-11-25T22:49:58.097Z,6.57
2022-11-25T22:52:28.610Z,6.67
2022-11-25T22:55:00.866Z,6.67
2022-11-25T22:57:28.804Z,6.85
2022-11-25T22:59:56.759Z,6.81
2022-11-25T23:02:32.015Z,6.90
2022-11-25T23:05:00.120Z,6.90
2022-11-25T23:07:28.213Z,6.92
2022-11-25T23:09:57.504Z,6.90
2022-11-25T23:12:25.810Z,7.07
2022-11-25T23:14:53.787Z,7.02
2022-11-25T23:17:24.419Z,7.02
2022-11-25T23:19:53.287Z,6.98
2022-11-25T23:22:21.456Z,6.95
2022-11-25T23:24:50.181Z,6.97
2022-11-25T23:27:19.495Z,6.94
2022-11-25T23:29:47.462Z,6.95
2022-11-25T23:32:19.339Z,6.96
2022-11-25T23:34:51.058Z,6.94
2022-11-25T23:37:19.533Z,6.91
2022-11-25T23:39:52.548Z,7.04
2022-11-25T23:42:22.085Z,6.97
2022-11-25T23:44:50.169Z,7.01
2022-11-25T23:47:21.408Z,7.04
2022-11-25T23:49:55.193Z,6.99
2022-11-25T23:52:26.649Z,6.93
2022-11-25T23:54:57.526Z,6.97
2022-11-25T23:57:30.921Z,6.96
2022-11-25T23:59:59.273Z,6.97
